Time;durP1;ratioP1;P1;durP2;ratioP2;P2;SDS_P1;SDS_P2;PMS_P1;PMS_P2;Temp;Humidity;BMP_temperature;BMP_pressure;BME280_temperature;BME280_humidity;BME280_pressure;Samples;Min_cycle;Max_cycle;Signal;HPM_P1;HPM_P2
2023/07/27 00:01:21;;;;;;;2.57;1.80;;;16.30;1.00;;;;;;5077450;28;20190;-45
2023/07/27 00:03:47;;;;;;;2.43;2.00;;;16.30;1.00;;;;;;5095784;28;20183;-45
2023/07/27 00:06:13;;;;;;;2.47;2.03;;;16.30;1.00;;;;;;5095461;28;20222;-45
2023/07/27 00:08:38;;;;;;;3.73;2.07;;;16.30;1.00;;;;;;5077306;28;20193;-42
2023/07/27 00:11:04;;;;;;;3.67;2.27;;;16.20;1.00;;;;;;5095440;28;20206;-47
2023/07/27 00:13:30;;;;;;;3.10;1.90;;;16.20;1.00;;;;;;5095671;28;20198;-46
2023/07/27 00:15:56;;;;;;;3.30;2.20;;;16.20;1.00;;;;;;5077252;28;20206;-46
2023/07/27 00:18:22;;;;;;;3.43;2.10;;;16.20;1.00;;;;;;5076820;28;20190;-42
2023/07/27 00:21:02;;;;;;;2.43;2.00;;;16.10;1.00;;;;;;5095463;28;20250;-41
2023/07/27 00:23:30;;;;;;;2.27;1.77;;;16.10;1.00;;;;;;5095690;28;20242;-40
2023/07/27 00:25:57;;;;;;;3.50;2.13;;;16.10;1.00;;;;;;5095074;28;20337;-42
2023/07/27 00:28:38;;;;;;;4.77;2.20;;;16.10;1.00;;;;;;5076714;28;20179;-39
2023/07/27 00:31:04;;;;;;;3.60;2.10;;;16.10;1.00;;;;;;5095160;28;20167;-44
2023/07/27 00:33:29;;;;;;;5.53;2.10;;;16.00;1.00;;;;;;5076730;28;20221;-45
2023/07/27 00:35:57;;;;;;;2.50;2.13;;;16.00;1.00;;;;;;5095161;28;20245;-45
2023/07/27 00:38:22;;;;;;;4.20;1.80;;;16.00;1.00;;;;;;5076858;28;20186;-46
2023/07/27 00:40:48;;;;;;;4.43;2.23;;;16.10;1.00;;;;;;5094916;28;20183;-45
2023/07/27 01:56:38;;;;;;;2.57;2.10;;;16.30;1.00;;;;;;5011777;28;20228;-39
2023/07/27 01:59:17;;;;;;;2.40;2.10;;;16.30;1.00;;;;;;5066369;28;20299;-41
2023/07/27 02:01:56;;;;;;;5.27;2.30;;;16.30;1.00;;;;;;5077978;28;20190;-40
2023/07/27 04:42:31;;;;;;;8.57;2.60;;;15.00;5.70;;;;;;3403592;25;20264;-46
2023/07/27 08:28:51;;;;;;;2.80;1.30;;;17.00;99.90;;;;;;5082989;28;20209;-40
2023/07/27 08:31:17;;;;;;;1.30;1.20;;;17.10;99.90;;;;;;5076239;28;20604;-40
2023/07/27 08:33:44;;;;;;;3.00;1.00;;;17.10;99.90;;;;;;5075648;28;20619;-43
2023/07/27 08:36:13;;;;;;;1.20;1.10;;;17.10;99.90;;;;;;5076111;28;20203;-40
2023/07/27 08:38:39;;;;;;;1.17;1.07;;;17.20;99.90;;;;;;5094078;28;20661;-43
2023/07/27 08:41:05;;;;;;;2.27;1.10;;;17.20;99.90;;;;;;5076211;28;20554;-42
2023/07/27 08:43:32;;;;;;;1.33;1.00;;;17.20;99.90;;;;;;5094016;28;20658;-43
2023/07/27 08:45:59;;;;;;;1.33;1.23;;;17.20;99.90;;;;;;5075648;28;20207;-41
2023/07/27 08:48:28;;;;;;;1.40;1.30;;;17.20;99.90;;;;;;5059029;28;20247;-42
2023/07/27 08:50:57;;;;;;;1.60;1.27;;;17.30;99.90;;;;;;5093983;28;20559;-43
2023/07/27 08:53:23;;;;;;;1.00;1.00;;;17.30;99.90;;;;;;5075461;28;20210;-42
2023/07/27 08:55:51;;;;;;;1.20;1.10;;;17.30;99.90;;;;;;5093870;28;20202;-42
2023/07/27 08:58:18;;;;;;;2.93;1.30;;;17.40;99.90;;;;;;5076182;28;20206;-41
2023/07/27 09:00:44;;;;;;;1.33;1.00;;;17.30;99.90;;;;;;5093954;28;20742;-42
2023/07/27 09:03:12;;;;;;;2.00;0.90;;;17.30;99.90;;;;;;5093688;28;20214;-43
2023/07/27 09:05:55;;;;;;;1.60;1.00;;;17.40;99.90;;;;;;5093676;28;20215;-44
2023/07/27 09:08:21;;;;;;;1.13;0.90;;;17.40;99.90;;;;;;5075563;28;20186;-43
2023/07/27 09:10:52;;;;;;;2.23;1.10;;;17.40;99.90;;;;;;5098614;28;20186;-43
2023/07/27 09:13:19;;;;;;;2.37;1.27;;;17.40;99.90;;;;;;5100391;28;20210;-42
2023/07/27 09:15:45;;;;;;;3.20;1.30;;;17.40;99.90;;;;;;5082043;28;20230;-43
2023/07/27 09:18:13;;;;;;;2.20;1.77;;;17.50;99.90;;;;;;5100370;28;20179;-40
2023/07/27 09:20:43;;;;;;;1.90;1.70;;;17.60;99.90;;;;;;5100319;28;20178;-44
2023/07/27 09:23:08;;;;;;;2.03;1.80;;;17.60;99.90;;;;;;5082348;28;20194;-42
2023/07/27 09:25:39;;;;;;;2.53;2.00;;;17.70;99.90;;;;;;5082085;28;20739;-40
2023/07/27 09:28:04;;;;;;;2.80;1.80;;;17.80;99.90;;;;;;5082267;28;20214;-40
2023/07/27 09:30:34;;;;;;;2.10;1.70;;;17.90;99.90;;;;;;5082177;28;20225;-43
2023/07/27 09:33:10;;;;;;;3.93;2.07;;;18.10;99.90;;;;;;5100955;28;20457;-43
2023/07/27 09:35:39;;;;;;;4.00;2.07;;;18.10;99.90;;;;;;5100805;28;20688;-42
2023/07/27 09:38:16;;;;;;;5.93;2.13;;;18.10;99.90;;;;;;5100399;28;20685;-41
2023/07/27 09:40:53;;;;;;;6.67;2.00;;;18.10;99.90;;;;;;5066699;28;20212;-43
2023/07/27 09:43:22;;;;;;;3.57;1.80;;;18.10;99.90;;;;;;5065296;28;20212;-44
2023/07/27 09:45:54;;;;;;;2.10;1.50;;;18.10;99.90;;;;;;5081866;28;20211;-42
2023/07/27 09:48:20;;;;;;;3.73;1.73;;;18.10;99.90;;;;;;5065353;28;20185;-44
2023/07/27 09:50:46;;;;;;;2.00;1.50;;;18.10;99.90;;;;;;5082210;28;20187;-40
2023/07/27 09:53:16;;;;;;;2.13;1.40;;;18.20;99.90;;;;;;5081647;28;20298;-42
2023/07/27 09:55:43;;;;;;;2.97;1.60;;;18.20;99.90;;;;;;5081819;28;20217;-42
2023/07/27 09:58:11;;;;;;;2.27;1.30;;;18.20;99.90;;;;;;5100160;28;20183;-43
2023/07/27 10:00:37;;;;;;;2.70;1.47;;;18.30;99.90;;;;;;5100124;28;20189;-42
2023/07/27 10:03:02;;;;;;;3.07;1.97;;;18.30;99.90;;;;;;5082399;28;20182;-40
2023/07/27 10:05:29;;;;;;;1.70;1.30;;;18.40;99.90;;;;;;5099825;28;20575;-42
2023/07/27 10:07:56;;;;;;;1.40;1.30;;;18.50;99.90;;;;;;5081700;28;20179;-39
2023/07/27 10:10:26;;;;;;;2.83;1.20;;;18.50;99.90;;;;;;5081992;28;20178;-42
2023/07/27 10:12:54;;;;;;;1.30;1.20;;;18.50;99.90;;;;;;5081536;28;20183;-43
2023/07/27 10:15:20;;;;;;;2.67;1.40;;;18.60;99.90;;;;;;5099646;28;20194;-43
2023/07/27 10:17:50;;;;;;;3.63;1.20;;;18.60;99.90;;;;;;5081480;28;20186;-42
2023/07/27 10:20:21;;;;;;;4.80;1.40;;;18.60;99.90;;;;;;5081508;28;20574;-44
2023/07/27 10:22:52;;;;;;;2.10;1.50;;;18.70;99.90;;;;;;5096565;28;20191;-44
2023/07/27 10:25:17;;;;;;;2.30;1.40;;;18.80;99.90;;;;;;5096797;28;20205;-46
2023/07/27 10:27:57;;;;;;;1.60;1.30;;;18.80;99.90;;;;;;5097216;28;20650;-44
2023/07/27 10:30:23;;;;;;;2.23;1.63;;;18.90;99.90;;;;;;5095826;28;20720;-41
2023/07/27 10:33:16;;;;;;;3.77;1.90;;;18.90;99.90;;;;;;5096478;28;20179;-43
2023/07/27 10:36:03;;;;;;;4.13;1.30;;;19.00;99.90;;;;;;5096095;28;20221;-41
2023/07/27 10:38:31;;;;;;;1.97;1.50;;;19.00;99.90;;;;;;5077973;28;20685;-42
2023/07/27 10:41:12;;;;;;;2.13;1.60;;;19.00;99.90;;;;;;5096252;28;20207;-42
2023/07/27 10:43:58;;;;;;;3.47;1.70;;;19.00;99.90;;;;;;5078063;28;20186;-41
2023/07/27 10:46:25;;;;;;;2.93;2.00;;;19.00;99.90;;;;;;5077988;28;20235;-41
2023/07/27 10:48:58;;;;;;;4.73;1.97;;;18.90;99.90;;;;;;5096248;28;20191;-44
2023/07/27 10:51:25;;;;;;;7.00;1.60;;;18.90;99.90;;;;;;5077815;28;20277;-41
2023/07/27 10:53:52;;;;;;;3.77;1.97;;;18.90;99.90;;;;;;5077681;28;20686;-43
2023/07/27 10:56:19;;;;;;;2.13;1.77;;;19.00;99.90;;;;;;5095699;28;20215;-41
2023/07/27 10:58:45;;;;;;;2.83;1.80;;;19.10;99.90;;;;;;5095751;28;20197;-39
2023/07/27 11:01:11;;;;;;;4.47;2.60;;;19.20;99.90;;;;;;5095761;28;20548;-42
2023/07/27 11:14:09;;;;;;;1.77;1.50;;;19.70;99.90;;;;;;5095671;28;20214;-42
2023/07/27 11:16:38;;;;;;;2.63;1.80;;;19.90;99.90;;;;;;5061721;28;20263;-42
2023/07/27 11:19:18;;;;;;;3.33;1.50;;;19.90;99.90;;;;;;5095729;28;20194;-39
2023/07/27 11:21:45;;;;;;;1.50;1.40;;;19.90;99.90;;;;;;5077265;28;20647;-41
2023/07/27 11:24:15;;;;;;;1.83;1.60;;;20.00;99.90;;;;;;5077414;28;20182;-41
2023/07/27 11:26:42;;;;;;;4.47;1.53;;;20.00;99.90;;;;;;5077152;28;20211;-41
2023/07/27 11:29:09;;;;;;;1.73;1.43;;;19.90;99.90;;;;;;5085161;28;20216;-42
2023/07/27 11:31:36;;;;;;;2.20;1.50;;;19.90;99.90;;;;;;5095226;28;20325;-40
2023/07/27 11:34:03;;;;;;;2.37;1.30;;;19.90;99.90;;;;;;5093212;28;20214;-41
2023/07/27 11:36:33;;;;;;;2.40;1.43;;;19.80;99.90;;;;;;5093583;28;20234;-41
2023/07/27 11:39:01;;;;;;;1.20;1.10;;;19.80;99.90;;;;;;5095801;28;20221;-41
2023/07/27 11:41:30;;;;;;;3.57;1.43;;;19.80;99.90;;;;;;5093380;28;20661;-40
2023/07/27 11:43:58;;;;;;;2.43;1.40;;;19.80;99.90;;;;;;5076920;28;20201;-41
2023/07/27 11:46:26;;;;;;;2.20;1.10;;;19.90;99.90;;;;;;5093503;28;20207;-44
2023/07/27 11:48:53;;;;;;;1.37;1.17;;;19.90;99.90;;;;;;5094754;28;20191;-42
2023/07/27 11:51:19;;;;;;;1.33;1.10;;;19.90;99.90;;;;;;5093662;28;20199;-42
2023/07/27 11:53:46;;;;;;;1.33;1.10;;;19.90;99.90;;;;;;5094527;28;20214;-40
2023/07/27 11:56:12;;;;;;;1.40;0.90;;;19.80;99.90;;;;;;5093321;28;20207;-43
2023/07/27 11:58:43;;;;;;;0.90;0.80;;;19.80;99.90;;;;;;5093472;28;20198;-41
2023/07/27 12:01:10;;;;;;;0.80;0.70;;;19.80;99.90;;;;;;5094566;28;20615;-40
2023/07/27 12:03:40;;;;;;;2.53;1.10;;;19.80;99.90;;;;;;5093081;28;20187;-42
2023/07/27 12:06:07;;;;;;;1.70;0.90;;;19.80;99.90;;;;;;5093100;28;20267;-40
2023/07/27 12:08:38;;;;;;;3.13;0.90;;;19.80;99.90;;;;;;5094590;28;20240;-44
2023/07/27 12:11:04;;;;;;;3.70;0.87;;;19.90;99.90;;;;;;5093281;28;20313;-41
2023/07/27 12:13:53;;;;;;;1.10;0.70;;;19.90;99.90;;;;;;5092928;28;20225;-40
2023/07/27 12:16:23;;;;;;;0.50;0.50;;;19.80;99.90;;;;;;5078235;28;20290;-42
2023/07/27 12:18:59;;;;;;;1.13;0.60;;;19.70;99.90;;;;;;5092827;28;20558;-40
2023/07/27 12:21:28;;;;;;;0.57;0.57;;;19.60;99.90;;;;;;5093098;28;20190;-43
2023/07/27 12:23:54;;;;;;;1.33;0.60;;;19.60;99.90;;;;;;5092943;28;20190;-43
2023/07/27 12:26:25;;;;;;;1.20;0.50;;;19.60;99.90;;;;;;5093003;28;20210;-40
2023/07/27 12:28:52;;;;;;;0.87;0.60;;;19.60;99.90;;;;;;5093465;28;20214;-43
2023/07/27 12:31:22;;;;;;;1.40;0.60;;;19.70;99.90;;;;;;5092764;28;20201;-43
2023/07/27 12:34:06;;;;;;;0.47;0.47;;;19.70;99.90;;;;;;5093052;28;20219;-43
2023/07/27 12:36:35;;;;;;;0.60;0.40;;;19.70;99.90;;;;;;5092384;28;20218;-43
2023/07/27 12:39:56;;;;;;;2.73;0.70;;;19.70;99.90;;;;;;5094110;28;20270;-44
2023/07/27 12:57:13;;;;;;;1.17;0.40;;;19.70;99.90;;;;;;5093092;28;20209;-43
2023/07/27 13:00:19;;;;;;;1.50;0.30;;;19.70;99.90;;;;;;5091185;28;20616;-42
2023/07/27 13:02:58;;;;;;;0.73;0.40;;;19.70;99.90;;;;;;5092670;28;20210;-43
2023/07/27 13:06:07;;;;;;;0.33;0.30;;;19.70;99.90;;;;;;5094374;28;20228;-42
2023/07/27 13:08:44;;;;;;;0.30;0.30;;;19.70;99.90;;;;;;5092813;28;20171;-43
2023/07/27 13:11:43;;;;;;;1.37;0.47;;;19.70;99.90;;;;;;5093354;28;20240;-43
2023/07/27 13:14:41;;;;;;;0.43;0.30;;;19.70;99.90;;;;;;5092464;28;20306;-44
2023/07/27 13:17:10;;;;;;;0.63;0.40;;;19.70;99.90;;;;;;5092410;28;20289;-43
2023/07/27 13:19:48;;;;;;;0.40;0.37;;;19.60;99.90;;;;;;5092154;28;20183;-44
2023/07/27 13:22:39;;;;;;;1.03;0.40;;;19.60;99.90;;;;;;5093847;28;20177;-44
2023/07/27 13:25:43;;;;;;;0.57;0.47;;;19.60;99.90;;;;;;5093407;28;20186;-44
2023/07/27 13:28:09;;;;;;;0.40;0.30;;;19.60;99.90;;;;;;5092436;28;20210;-43
2023/07/27 13:30:35;;;;;;;1.03;0.40;;;19.60;99.90;;;;;;5093654;28;20163;-43
2023/07/27 13:33:03;;;;;;;0.40;0.33;;;19.60;99.90;;;;;;5075341;28;20281;-44
2023/07/27 13:35:29;;;;;;;1.57;0.30;;;19.60;99.90;;;;;;5058849;28;20206;-43
2023/07/27 13:37:57;;;;;;;6.60;1.23;;;19.60;99.90;;;;;;5075247;28;20194;-43
2023/07/27 13:40:34;;;;;;;4.23;0.60;;;19.50;99.90;;;;;;5075411;28;20183;-47
2023/07/27 13:43:12;;;;;;;1.80;0.60;;;19.60;99.90;;;;;;5060393;28;20162;-43
2023/07/27 13:45:47;;;;;;;0.40;0.40;;;19.60;99.90;;;;;;5074918;28;20207;-42
2023/07/27 13:48:14;;;;;;;2.17;0.50;;;19.50;99.90;;;;;;5076833;28;20261;-43
2023/07/27 13:50:40;;;;;;;1.10;0.40;;;19.60;99.90;;;;;;5075131;28;20671;-42
2023/07/27 13:53:09;;;;;;;0.30;0.30;;;19.50;99.90;;;;;;5093523;28;20232;-43
2023/07/27 13:55:39;;;;;;;0.47;0.40;;;19.50;99.90;;;;;;5075238;28;20214;-42
2023/07/27 13:58:05;;;;;;;0.57;0.50;;;19.60;99.90;;;;;;5097136;28;20519;-42
2023/07/27 14:00:32;;;;;;;0.20;0.20;;;19.50;99.90;;;;;;5097045;28;20175;-44
2023/07/27 14:02:58;;;;;;;1.63;0.40;;;19.50;99.90;;;;;;5097234;28;20182;-43
2023/07/27 14:05:23;;;;;;;1.00;0.50;;;19.50;99.90;;;;;;5096966;28;20202;-41
2023/07/27 14:07:50;;;;;;;0.73;0.40;;;19.40;99.90;;;;;;5096784;28;20187;-44
2023/07/27 14:10:16;;;;;;;0.20;0.20;;;19.40;99.90;;;;;;5078512;28;20186;-43
2023/07/27 14:12:42;;;;;;;0.60;0.43;;;19.40;99.90;;;;;;5096824;28;20205;-42
2023/07/27 14:15:08;;;;;;;0.43;0.23;;;19.40;99.90;;;;;;5078520;28;20259;-42
2023/07/27 14:17:34;;;;;;;0.40;0.30;;;19.40;99.90;;;;;;5096640;28;20207;-41
2023/07/27 14:20:00;;;;;;;0.50;0.20;;;19.30;99.90;;;;;;5096646;28;20210;-42
2023/07/27 14:22:35;;;;;;;0.47;0.47;;;19.30;99.90;;;;;;5096867;28;20635;-43
2023/07/27 14:25:07;;;;;;;2.67;0.53;;;19.30;99.90;;;;;;5097473;28;20186;-43
2023/07/27 14:27:33;;;;;;;3.70;0.60;;;19.30;99.90;;;;;;5096371;28;20183;-42
2023/07/27 14:30:00;;;;;;;1.77;0.20;;;19.30;99.90;;;;;;5078341;28;20668;-42
2023/07/27 14:32:27;;;;;;;0.30;0.30;;;19.30;99.90;;;;;;5077715;28;20191;-45
2023/07/27 14:34:52;;;;;;;2.60;0.50;;;19.20;99.90;;;;;;5094823;28;20207;-44
2023/07/27 14:37:18;;;;;;;0.30;0.30;;;19.20;99.90;;;;;;5096248;28;20576;-41
2023/07/27 14:39:44;;;;;;;0.37;0.20;;;19.30;99.90;;;;;;5096126;28;20175;-42
2023/07/27 14:42:10;;;;;;;0.30;0.30;;;19.20;99.90;;;;;;5096144;28;20652;-40
2023/07/27 14:44:35;;;;;;;2.00;0.40;;;19.30;99.90;;;;;;5096649;28;20194;-42
2023/07/27 14:47:01;;;;;;;2.00;0.37;;;19.30;99.90;;;;;;5096320;28;20222;-39
2023/07/27 14:49:27;;;;;;;0.20;0.20;;;19.20;99.90;;;;;;5096520;28;20248;-43
2023/07/27 14:51:53;;;;;;;0.60;0.30;;;19.30;99.90;;;;;;5096348;28;20690;-41
2023/07/27 14:54:20;;;;;;;1.03;0.50;;;19.30;99.90;;;;;;5095922;28;20211;-43
2023/07/27 14:56:46;;;;;;;0.20;0.20;;;19.30;99.90;;;;;;5096230;28;20203;-43
2023/07/27 14:59:12;;;;;;;0.67;0.40;;;19.30;99.90;;;;;;5077716;28;20240;-42
2023/07/27 15:01:38;;;;;;;1.07;0.40;;;19.30;99.90;;;;;;5096248;28;20179;-43
2023/07/27 15:04:04;;;;;;;0.97;0.30;;;19.30;99.90;;;;;;5096344;28;20190;-41
2023/07/27 15:06:30;;;;;;;0.83;0.30;;;19.30;99.90;;;;;;5096025;28;20202;-41
2023/07/27 15:08:58;;;;;;;1.27;0.30;;;19.30;99.90;;;;;;5095247;28;20187;-41
2023/07/27 15:11:24;;;;;;;2.73;0.40;;;19.30;99.90;;;;;;5083981;28;20218;-43
2023/07/27 15:13:50;;;;;;;0.27;0.23;;;19.30;99.90;;;;;;5081348;28;20221;-42
2023/07/27 15:16:16;;;;;;;0.57;0.40;;;19.20;99.90;;;;;;5097390;28;20267;-42
2023/07/27 15:18:42;;;;;;;0.50;0.40;;;19.20;99.90;;;;;;5090975;28;20187;-42
2023/07/27 15:21:08;;;;;;;1.60;0.27;;;19.20;99.90;;;;;;5095607;28;20189;-43
2023/07/27 15:23:34;;;;;;;1.27;0.37;;;19.20;99.90;;;;;;5096132;28;20270;-41
2023/07/27 15:26:05;;;;;;;0.60;0.23;;;19.20;99.90;;;;;;5096449;28;20210;-41
2023/07/27 15:28:36;;;;;;;1.80;0.40;;;19.20;99.90;;;;;;5095661;28;20192;-42
2023/07/27 15:31:05;;;;;;;0.33;0.33;;;19.20;99.90;;;;;;5095687;28;20561;-41
2023/07/27 15:33:32;;;;;;;1.70;0.50;;;19.10;99.90;;;;;;5095558;28;20708;-41
2023/07/27 15:36:00;;;;;;;0.40;0.40;;;19.10;99.90;;;;;;5095177;28;20194;-42
2023/07/27 15:38:29;;;;;;;0.50;0.40;;;19.10;99.90;;;;;;5095554;28;20598;-41
2023/07/27 15:41:00;;;;;;;0.43;0.43;;;19.10;99.90;;;;;;5093767;28;20190;-42
2023/07/27 15:43:26;;;;;;;1.20;0.50;;;19.10;99.90;;;;;;5095660;28;20242;-42
2023/07/27 15:45:52;;;;;;;1.80;0.60;;;19.10;99.90;;;;;;5095069;28;20233;-41
2023/07/27 15:48:20;;;;;;;0.87;0.50;;;19.10;99.90;;;;;;5076931;28;20567;-43
2023/07/27 15:50:52;;;;;;;0.50;0.50;;;19.10;99.90;;;;;;5095303;28;20179;-42
2023/07/27 15:53:18;;;;;;;1.40;0.50;;;19.10;99.90;;;;;;5110249;28;20276;-42
2023/07/27 15:55:44;;;;;;;0.93;0.80;;;19.20;99.90;;;;;;5094805;28;20195;-41
2023/07/27 15:58:10;;;;;;;2.30;0.90;;;19.10;99.90;;;;;;5095059;28;20212;-42
2023/07/27 16:00:40;;;;;;;0.50;0.40;;;19.20;99.90;;;;;;5095076;28;20180;-42
2023/07/27 16:03:06;;;;;;;1.73;0.60;;;19.10;99.90;;;;;;5094749;28;20266;-43
2023/07/27 16:05:34;;;;;;;0.43;0.43;;;19.20;99.90;;;;;;5094766;28;20240;-43
2023/07/27 16:08:02;;;;;;;1.63;0.60;;;19.10;99.90;;;;;;5094744;28;20652;-42
2023/07/27 16:10:27;;;;;;;0.50;0.50;;;19.10;99.90;;;;;;5094545;28;20183;-41
2023/07/27 16:12:53;;;;;;;1.17;0.60;;;19.00;99.90;;;;;;5094612;28;20171;-42
2023/07/27 16:15:20;;;;;;;4.93;0.70;;;19.00;99.90;;;;;;5094490;28;20383;-43
2023/07/27 16:17:46;;;;;;;2.83;0.90;;;19.00;99.90;;;;;;5076376;28;20183;-41
2023/07/27 16:20:12;;;;;;;10.40;1.67;;;19.00;99.90;;;;;;5094341;28;20201;-41
2023/07/27 16:22:38;;;;;;;2.80;0.50;;;19.00;99.90;;;;;;5094727;28;20612;-41
2023/07/27 16:25:04;;;;;;;2.27;0.70;;;19.00;99.90;;;;;;5094493;28;20265;-42
2023/07/27 16:27:30;;;;;;;3.50;0.60;;;19.00;99.90;;;;;;5094315;28;20209;-42
2023/07/27 16:29:57;;;;;;;2.43;0.50;;;18.90;99.90;;;;;;5094072;28;20732;-42
2023/07/27 16:32:23;;;;;;;1.80;0.70;;;18.90;99.90;;;;;;5094059;28;20195;-43
2023/07/27 16:34:49;;;;;;;0.70;0.67;;;18.90;99.90;;;;;;5075953;28;20712;-42
2023/07/27 16:37:15;;;;;;;1.17;0.53;;;18.90;99.90;;;;;;5094006;28;20195;-43
2023/07/27 16:39:41;;;;;;;0.97;0.57;;;18.80;99.90;;;;;;5075982;28;20183;-44
2023/07/27 16:42:07;;;;;;;1.10;0.50;;;18.80;99.90;;;;;;5093955;28;20187;-43
2023/07/27 16:44:43;;;;;;;1.27;0.60;;;18.80;99.90;;;;;;5092755;28;20187;-48
2023/07/27 16:47:09;;;;;;;1.03;0.50;;;18.90;99.90;;;;;;5110017;28;20298;-42
2023/07/27 16:49:35;;;;;;;1.33;0.60;;;18.80;99.90;;;;;;5093859;28;20528;-43
2023/07/27 16:52:01;;;;;;;0.83;0.60;;;18.80;99.90;;;;;;5093800;28;20240;-42
2023/07/27 16:54:27;;;;;;;0.93;0.60;;;18.90;99.90;;;;;;5093764;28;20211;-44
2023/07/27 16:56:53;;;;;;;0.63;0.63;;;18.80;99.90;;;;;;5075609;28;20263;-43
2023/07/27 16:59:23;;;;;;;0.60;0.60;;;18.80;99.90;;;;;;5093666;28;20175;-42
2023/07/27 17:01:50;;;;;;;1.17;0.60;;;18.80;99.90;;;;;;5093943;28;20561;-43
2023/07/27 17:04:18;;;;;;;0.50;0.50;;;18.80;99.90;;;;;;5094055;28;20695;-44
2023/07/27 17:06:47;;;;;;;2.67;0.70;;;18.80;99.90;;;;;;5093981;28;20203;-42
2023/07/27 17:09:20;;;;;;;0.70;0.70;;;18.80;99.90;;;;;;5093582;28;20178;-43
2023/07/27 17:11:47;;;;;;;0.90;0.60;;;18.90;99.90;;;;;;5108942;28;20191;-42
2023/07/27 17:14:13;;;;;;;1.63;0.50;;;18.80;99.90;;;;;;5094211;28;20226;-42
2023/07/27 17:16:41;;;;;;;2.83;0.60;;;18.80;99.90;;;;;;5093767;28;20237;-43
2023/07/27 17:19:51;;;;;;;1.70;0.40;;;18.80;99.90;;;;;;5096062;28;20194;-42
2023/07/27 17:22:39;;;;;;;0.57;0.57;;;18.80;99.90;;;;;;5071001;28;20202;-42
2023/07/27 17:25:06;;;;;;;3.40;0.40;;;18.80;99.90;;;;;;5096608;28;20610;-43
2023/07/27 17:27:32;;;;;;;0.30;0.30;;;18.70;99.90;;;;;;5094137;28;20244;-48
2023/07/27 17:29:58;;;;;;;1.90;0.60;;;18.70;99.90;;;;;;5094226;28;20202;-43
2023/07/27 17:32:24;;;;;;;1.50;0.40;;;18.70;99.90;;;;;;5096799;28;20269;-41
2023/07/27 17:34:49;;;;;;;1.83;0.80;;;18.70;99.90;;;;;;5097582;28;20209;-44
2023/07/27 17:37:15;;;;;;;0.50;0.40;;;18.70;99.90;;;;;;5097461;28;20238;-42
2023/07/27 17:39:44;;;;;;;3.20;0.40;;;18.70;99.90;;;;;;5097708;28;20202;-41
2023/07/27 17:42:10;;;;;;;0.47;0.37;;;18.70;99.90;;;;;;5113447;28;20181;-43
2023/07/27 17:44:36;;;;;;;1.77;0.40;;;18.60;99.90;;;;;;5079163;28;20722;-44
2023/07/27 17:47:01;;;;;;;0.50;0.50;;;18.60;99.90;;;;;;5097557;28;20211;-43
2023/07/27 17:49:27;;;;;;;1.40;0.73;;;18.60;99.90;;;;;;5097804;28;20210;-42
2023/07/27 17:51:52;;;;;;;0.60;0.40;;;18.60;99.90;;;;;;5097265;28;20600;-42
2023/07/27 17:54:18;;;;;;;0.73;0.73;;;18.60;99.90;;;;;;5097041;28;20249;-41
2023/07/27 17:56:44;;;;;;;0.90;0.70;;;18.50;99.90;;;;;;5078836;28;20207;-42
2023/07/27 17:59:10;;;;;;;5.10;0.60;;;18.50;99.90;;;;;;5097417;28;20182;-44
2023/07/27 18:01:35;;;;;;;1.50;0.50;;;18.40;99.90;;;;;;5097211;28;20183;-44
2023/07/27 18:04:01;;;;;;;1.37;0.73;;;18.50;99.90;;;;;;5096955;28;20183;-46
2023/07/27 18:06:28;;;;;;;0.97;0.70;;;18.50;99.90;;;;;;5096824;28;20619;-42
2023/07/27 18:08:54;;;;;;;2.10;0.80;;;18.40;99.90;;;;;;5113964;28;20208;-43
2023/07/27 18:11:22;;;;;;;2.97;0.80;;;18.40;99.90;;;;;;5099192;28;20194;-45
2023/07/27 18:13:47;;;;;;;1.67;0.97;;;18.40;99.90;;;;;;5097456;28;20544;-43
2023/07/27 18:16:14;;;;;;;1.70;0.80;;;18.40;99.90;;;;;;5098175;28;20202;-43
2023/07/27 18:18:41;;;;;;;3.17;0.77;;;18.40;99.90;;;;;;5078617;28;20183;-44
2023/07/27 18:21:16;;;;;;;1.10;0.80;;;18.40;99.90;;;;;;5095278;28;20183;-44
2023/07/27 18:23:43;;;;;;;1.70;0.90;;;18.40;99.90;;;;;;5078421;28;20231;-41
2023/07/27 18:26:18;;;;;;;2.17;0.90;;;18.40;99.90;;;;;;5096596;28;20221;-43
2023/07/27 18:28:44;;;;;;;1.53;0.80;;;18.40;99.90;;;;;;5096559;28;20198;-43
2023/07/27 18:31:11;;;;;;;1.13;0.90;;;18.40;99.90;;;;;;5078270;28;20232;-43
2023/07/27 18:33:37;;;;;;;1.50;0.70;;;18.40;99.90;;;;;;5096220;28;20224;-43
2023/07/27 18:36:13;;;;;;;1.50;0.67;;;18.40;99.90;;;;;;5078130;28;20211;-43
2023/07/27 18:38:39;;;;;;;1.63;0.77;;;18.40;99.90;;;;;;5078115;28;20187;-42
2023/07/27 18:41:06;;;;;;;3.00;0.80;;;18.40;99.90;;;;;;5078054;28;20240;-43
2023/07/27 18:43:32;;;;;;;2.00;0.70;;;18.40;99.90;;;;;;5076784;28;20179;-42
2023/07/27 18:45:58;;;;;;;3.03;0.90;;;18.40;99.90;;;;;;5094698;28;20275;-41
2023/07/27 18:48:24;;;;;;;1.70;0.90;;;18.40;99.90;;;;;;5077879;28;20195;-42
2023/07/27 18:50:56;;;;;;;1.30;0.73;;;18.40;99.90;;;;;;5096055;28;20187;-42
2023/07/27 18:53:22;;;;;;;3.53;1.53;;;18.40;99.90;;;;;;5111535;28;20568;-43
2023/07/27 18:55:49;;;;;;;1.23;0.80;;;18.30;99.90;;;;;;5095804;28;20212;-41
2023/07/27 18:58:16;;;;;;;1.40;0.93;;;18.40;99.90;;;;;;5095863;28;20202;-44
2023/07/27 19:00:50;;;;;;;0.83;0.73;;;18.30;99.90;;;;;;5077637;28;20191;-44
2023/07/27 19:03:19;;;;;;;1.30;1.00;;;18.40;99.90;;;;;;5095723;28;20170;-42
2023/07/27 19:05:45;;;;;;;0.60;0.60;;;18.30;99.90;;;;;;5077444;28;20233;-43
2023/07/27 19:08:10;;;;;;;4.10;0.90;;;18.30;99.90;;;;;;5095953;28;20217;-41
2023/07/27 19:10:36;;;;;;;0.80;0.70;;;18.30;99.90;;;;;;5095666;28;20558;-45
2023/07/27 19:13:02;;;;;;;0.93;0.83;;;18.30;99.90;;;;;;5094268;28;20239;-43
2023/07/27 19:15:28;;;;;;;1.23;0.70;;;18.30;99.90;;;;;;5095933;28;20241;-43
2023/07/27 19:17:55;;;;;;;1.20;0.80;;;18.20;99.90;;;;;;5077596;28;20191;-41
2023/07/27 19:20:21;;;;;;;0.80;0.70;;;18.20;99.90;;;;;;5094177;28;20218;-45
2023/07/27 19:22:51;;;;;;;0.80;0.70;;;18.20;99.90;;;;;;5095905;28;20267;-44
2023/07/27 19:25:17;;;;;;;3.07;0.87;;;18.10;99.90;;;;;;5111166;28;20211;-42
2023/07/27 19:27:45;;;;;;;7.90;0.90;;;18.20;99.90;;;;;;5095341;28;20671;-44
2023/07/27 19:30:13;;;;;;;3.00;1.03;;;18.10;99.90;;;;;;5093494;28;20670;-42
2023/07/27 19:32:39;;;;;;;1.43;1.10;;;18.10;99.90;;;;;;5095525;28;20191;-42
2023/07/27 19:35:06;;;;;;;1.47;0.70;;;18.10;99.90;;;;;;5110631;28;20335;-41
2023/07/27 19:37:31;;;;;;;0.77;0.60;;;18.10;99.90;;;;;;5095121;28;20186;-44
2023/07/27 19:39:57;;;;;;;1.50;0.90;;;18.10;99.90;;;;;;5095292;28;20183;-43
2023/07/27 19:42:23;;;;;;;0.97;0.80;;;18.10;99.90;;;;;;5095101;28;20190;-43
2023/07/27 19:44:49;;;;;;;2.33;0.80;;;18.00;99.90;;;;;;5095617;28;20175;-44
2023/07/27 19:47:14;;;;;;;4.43;1.03;;;18.00;99.90;;;;;;5127442;27;20202;-42
2023/07/27 19:49:41;;;;;;;4.83;0.70;;;18.00;99.90;;;;;;5093714;28;20198;-43
2023/07/27 19:52:07;;;;;;;2.77;0.97;;;18.00;99.90;;;;;;5127820;27;20201;-43
2023/07/27 19:54:32;;;;;;;6.07;1.00;;;18.00;99.90;;;;;;5127299;27;20210;-44
2023/07/27 19:56:58;;;;;;;2.70;0.70;;;18.00;99.90;;;;;;5128067;27;20267;-41
2023/07/27 19:59:24;;;;;;;1.90;0.80;;;18.00;99.90;;;;;;5094745;28;20175;-42
2023/07/27 20:01:50;;;;;;;2.13;0.97;;;18.00;99.90;;;;;;5094575;28;20312;-44
2023/07/27 20:04:16;;;;;;;1.13;0.80;;;18.00;99.90;;;;;;5092969;28;20202;-42
2023/07/27 20:06:41;;;;;;;4.07;1.10;;;18.00;99.90;;;;;;5093101;28;20211;-43
2023/07/27 20:09:07;;;;;;;2.60;1.30;;;18.00;99.90;;;;;;5094468;28;20651;-40
2023/07/27 20:11:33;;;;;;;8.53;1.10;;;18.00;99.90;;;;;;5094652;28;20264;-42
2023/07/27 20:13:59;;;;;;;2.70;1.40;;;18.00;99.90;;;;;;5094407;28;20742;-42
2023/07/27 20:16:24;;;;;;;4.07;1.03;;;17.90;99.90;;;;;;5094314;28;20278;-41
2023/07/27 20:18:54;;;;;;;4.03;1.53;;;18.00;99.90;;;;;;5094230;28;20178;-42
2023/07/27 20:21:19;;;;;;;1.70;1.40;;;17.90;99.90;;;;;;5094290;28;20523;-42
2023/07/27 20:23:46;;;;;;;3.70;1.30;;;18.00;99.90;;;;;;5094224;28;20198;-40
2023/07/27 20:26:11;;;;;;;2.60;1.40;;;18.00;99.90;;;;;;5127054;27;20252;-43
2023/07/27 20:28:37;;;;;;;7.03;1.63;;;17.90;99.90;;;;;;5094184;28;20206;-42
2023/07/27 20:31:06;;;;;;;2.77;1.20;;;17.90;99.90;;;;;;5094042;28;20239;-44
2023/07/27 20:33:32;;;;;;;2.53;1.10;;;17.90;99.90;;;;;;5094138;28;20306;-42
2023/07/27 20:35:58;;;;;;;3.03;1.30;;;17.90;99.90;;;;;;5094039;28;20209;-43
2023/07/27 20:38:24;;;;;;;2.60;1.40;;;17.90;99.90;;;;;;5094214;28;20170;-41
2023/07/27 20:40:50;;;;;;;5.67;1.40;;;17.90;99.90;;;;;;5094310;28;20190;-43
2023/07/27 20:43:15;;;;;;;2.73;1.50;;;17.80;99.90;;;;;;5094226;28;20182;-41
2023/07/27 20:45:41;;;;;;;3.60;1.33;;;17.80;99.90;;;;;;5094015;28;20206;-44
2023/07/27 20:48:07;;;;;;;1.83;1.43;;;17.80;99.90;;;;;;5094043;28;20565;-41
2023/07/27 20:50:32;;;;;;;3.90;1.50;;;17.80;99.90;;;;;;5093880;28;20187;-43
2023/07/27 20:52:58;;;;;;;3.03;1.70;;;17.80;99.90;;;;;;5094147;28;20213;-41
2023/07/27 20:55:24;;;;;;;2.97;1.20;;;17.80;99.90;;;;;;5093757;28;20214;-43
2023/07/27 20:57:50;;;;;;;3.20;2.03;;;17.70;99.90;;;;;;5075618;28;20184;-42